sensor_id;sensor_type;location;lat;lon;timestamp;P1;durP1;ratioP1;P2;durP2;ratioP2
55312;SDS011;46892;45.668;11.756;2023-03-01T00:01:28;20.37;;;12.13;;
55312;SDS011;46892;45.668;11.756;2023-03-01T00:03:55;17.93;;;11.23;;
55312;SDS011;46892;45.668;11.756;2023-03-01T00:06:21;19.07;;;10.43;;
55312;SDS011;46892;45.668;11.756;2023-03-01T00:08:47;18.87;;;10.53;;
55312;SDS011;46892;45.668;11.756;2023-03-01T00:11:20;16.83;;;10.10;;
55312;SDS011;46892;45.668;11.756;2023-03-01T00:13:48;16.43;;;10.60;;
55312;SDS011;46892;45.668;11.756;2023-03-01T00:16:20;16.67;;;10.13;;
55312;SDS011;46892;45.668;11.756;2023-03-01T00:18:48;16.30;;;10.53;;
55312;SDS011;46892;45.668;11.756;2023-03-01T00:21:15;16.50;;;9.77;;
55312;SDS011;46892;45.668;11.756;2023-03-01T00:23:42;14.97;;;9.37;;
55312;SDS011;46892;45.668;11.756;2023-03-01T00:26:09;15.57;;;9.50;;
55312;SDS011;46892;45.668;11.756;2023-03-01T00:28:37;17.23;;;10.60;;
55312;SDS011;46892;45.668;11.756;2023-03-01T00:31:07;17.33;;;9.63;;
55312;SDS011;46892;45.668;11.756;2023-03-01T00:33:35;15.37;;;9.57;;
55312;SDS011;46892;45.668;11.756;2023-03-01T00:36:01;16.53;;;9.50;;
55312;SDS011;46892;45.668;11.756;2023-03-01T00:38:27;16.30;;;9.33;;
55312;SDS011;46892;45.668;11.756;2023-03-01T00:40:53;20.50;;;10.77;;
55312;SDS011;46892;45.668;11.756;2023-03-01T00:43:19;16.17;;;10.47;;
55312;SDS011;46892;45.668;11.756;2023-03-01T00:45:45;14.60;;;9.63;;
55312;SDS011;46892;45.668;11.756;2023-03-01T00:48:11;15.47;;;9.57;;
55312;SDS011;46892;45.668;11.756;2023-03-01T00:50:36;15.40;;;9.87;;
55312;SDS011;46892;45.668;11.756;2023-03-01T00:53:02;16.60;;;10.20;;
55312;SDS011;46892;45.668;11.756;2023-03-01T00:55:28;16.73;;;10.37;;
55312;SDS011;46892;45.668;11.756;2023-03-01T00:57:53;16.07;;;9.27;;
55312;SDS011;46892;45.668;11.756;2023-03-01T01:00:19;16.90;;;9.63;;
55312;SDS011;46892;45.668;11.756;2023-03-01T01:02:45;18.90;;;10.40;;
55312;SDS011;46892;45.668;11.756;2023-03-01T01:05:11;17.97;;;10.30;;
55312;SDS011;46892;45.668;11.756;2023-03-01T01:07:37;19.50;;;10.73;;
55312;SDS011;46892;45.668;11.756;2023-03-01T01:10:03;19.10;;;10.40;;
55312;SDS011;46892;45.668;11.756;2023-03-01T01:12:30;18.07;;;10.93;;
55312;SDS011;46892;45.668;11.756;2023-03-01T01:14:55;15.53;;;9.50;;
55312;SDS011;46892;45.668;11.756;2023-03-01T01:17:21;19.53;;;9.90;;
55312;SDS011;46892;45.668;11.756;2023-03-01T01:19:47;17.30;;;10.13;;
55312;SDS011;46892;45.668;11.756;2023-03-01T01:22:13;15.53;;;9.47;;
55312;SDS011;46892;45.668;11.756;2023-03-01T01:24:38;15.07;;;9.47;;
55312;SDS011;46892;45.668;11.756;2023-03-01T01:27:04;15.40;;;9.03;;
55312;SDS011;46892;45.668;11.756;2023-03-01T01:29:30;15.77;;;9.67;;
55312;SDS011;46892;45.668;11.756;2023-03-01T01:31:56;14.10;;;8.80;;
55312;SDS011;46892;45.668;11.756;2023-03-01T01:34:22;16.63;;;9.83;;
55312;SDS011;46892;45.668;11.756;2023-03-01T01:36:51;14.33;;;8.57;;
55312;SDS011;46892;45.668;11.756;2023-03-01T01:39:19;15.60;;;9.57;;
55312;SDS011;46892;45.668;11.756;2023-03-01T01:41:45;15.90;;;9.67;;
55312;SDS011;46892;45.668;11.756;2023-03-01T01:44:19;13.73;;;8.97;;
55312;SDS011;46892;45.668;11.756;2023-03-01T01:47:00;12.87;;;8.20;;
55312;SDS011;46892;45.668;11.756;2023-03-01T01:49:42;14.80;;;8.60;;
55312;SDS011;46892;45.668;11.756;2023-03-01T01:54:53;13.93;;;8.53;;
55312;SDS011;46892;45.668;11.756;2023-03-01T01:57:34;14.00;;;7.97;;
55312;SDS011;46892;45.668;11.756;2023-03-01T02:00:05;12.60;;;7.97;;
55312;SDS011;46892;45.668;11.756;2023-03-01T02:02:34;11.43;;;7.90;;
55312;SDS011;46892;45.668;11.756;2023-03-01T02:05:03;12.63;;;8.30;;
55312;SDS011;46892;45.668;11.756;2023-03-01T02:10:18;14.90;;;9.07;;
55312;SDS011;46892;45.668;11.756;2023-03-01T02:12:44;15.87;;;8.37;;
55312;SDS011;46892;45.668;11.756;2023-03-01T02:15:10;13.73;;;8.23;;
55312;SDS011;46892;45.668;11.756;2023-03-01T02:17:36;12.57;;;8.37;;
55312;SDS011;46892;45.668;11.756;2023-03-01T02:22:50;12.23;;;7.60;;
55312;SDS011;46892;45.668;11.756;2023-03-01T02:30:33;18.20;;;9.83;;
55312;SDS011;46892;45.668;11.756;2023-03-01T02:32:58;15.53;;;8.73;;
55312;SDS011;46892;45.668;11.756;2023-03-01T02:35:33;17.02;;;9.48;;
55312;SDS011;46892;45.668;11.756;2023-03-01T02:38:02;15.73;;;9.47;;
55312;SDS011;46892;45.668;11.756;2023-03-01T02:40:31;17.20;;;9.43;;
55312;SDS011;46892;45.668;11.756;2023-03-01T02:42:59;19.07;;;10.17;;
55312;SDS011;46892;45.668;11.756;2023-03-01T02:45:25;14.50;;;9.23;;
55312;SDS011;46892;45.668;11.756;2023-03-01T02:47:55;16.80;;;9.70;;
55312;SDS011;46892;45.668;11.756;2023-03-01T02:55:41;14.53;;;9.23;;
55312;SDS011;46892;45.668;11.756;2023-03-01T02:58:07;16.73;;;9.83;;
55312;SDS011;46892;45.668;11.756;2023-03-01T03:00:37;15.67;;;9.00;;
55312;SDS011;46892;45.668;11.756;2023-03-01T03:03:10;13.20;;;8.00;;
55312;SDS011;46892;45.668;11.756;2023-03-01T03:05:38;15.57;;;9.07;;
55312;SDS011;46892;45.668;11.756;2023-03-01T03:08:04;14.93;;;9.10;;
55312;SDS011;46892;45.668;11.756;2023-03-01T03:10:31;14.03;;;8.17;;
55312;SDS011;46892;45.668;11.756;2023-03-01T03:13:10;14.95;;;8.50;;
55312;SDS011;46892;45.668;11.756;2023-03-01T03:15:40;14.53;;;7.43;;
55312;SDS011;46892;45.668;11.756;2023-03-01T03:18:07;11.83;;;7.40;;
55312;SDS011;46892;45.668;11.756;2023-03-01T03:20:35;11.20;;;7.27;;
55312;SDS011;46892;45.668;11.756;2023-03-01T03:23:04;13.40;;;7.70;;
55312;SDS011;46892;45.668;11.756;2023-03-01T03:25:30;12.30;;;7.40;;
55312;SDS011;46892;45.668;11.756;2023-03-01T03:27:56;12.60;;;7.60;;
55312;SDS011;46892;45.668;11.756;2023-03-01T03:30:29;11.03;;;6.83;;
55312;SDS011;46892;45.668;11.756;2023-03-01T03:32:56;12.57;;;7.40;;
55312;SDS011;46892;45.668;11.756;2023-03-01T03:35:31;11.87;;;7.30;;
55312;SDS011;46892;45.668;11.756;2023-03-01T03:37:59;13.47;;;8.20;;
55312;SDS011;46892;45.668;11.756;2023-03-01T03:40:27;16.47;;;7.40;;
55312;SDS011;46892;45.668;11.756;2023-03-01T03:43:01;13.67;;;7.90;;
55312;SDS011;46892;45.668;11.756;2023-03-01T03:45:27;15.80;;;7.70;;
55312;SDS011;46892;45.668;11.756;2023-03-01T03:47:53;13.70;;;7.60;;
55312;SDS011;46892;45.668;11.756;2023-03-01T03:50:19;13.87;;;7.63;;
55312;SDS011;46892;45.668;11.756;2023-03-01T03:52:44;13.27;;;7.40;;
55312;SDS011;46892;45.668;11.756;2023-03-01T03:55:10;16.47;;;8.47;;
55312;SDS011;46892;45.668;11.756;2023-03-01T03:57:40;13.40;;;7.83;;
55312;SDS011;46892;45.668;11.756;2023-03-01T04:00:08;12.90;;;7.57;;
55312;SDS011;46892;45.668;11.756;2023-03-01T04:02:42;14.47;;;7.67;;
55312;SDS011;46892;45.668;11.756;2023-03-01T04:05:09;11.37;;;7.33;;
55312;SDS011;46892;45.668;11.756;2023-03-01T04:07:36;13.07;;;7.50;;
55312;SDS011;46892;45.668;11.756;2023-03-01T04:10:07;13.73;;;7.87;;
55312;SDS011;46892;45.668;11.756;2023-03-01T04:12:37;18.60;;;7.87;;
55312;SDS011;46892;45.668;11.756;2023-03-01T04:15:03;11.10;;;7.10;;
55312;SDS011;46892;45.668;11.756;2023-03-01T04:17:44;20.13;;;8.03;;
55312;SDS011;46892;45.668;11.756;2023-03-01T04:20:15;11.43;;;6.80;;
55312;SDS011;46892;45.668;11.756;2023-03-01T04:22:43;13.83;;;7.37;;
55312;SDS011;46892;45.668;11.756;2023-03-01T04:25:12;10.67;;;6.57;;
55312;SDS011;46892;45.668;11.756;2023-03-01T04:27:39;12.63;;;6.93;;
55312;SDS011;46892;45.668;11.756;2023-03-01T04:30:06;14.10;;;7.30;;
55312;SDS011;46892;45.668;11.756;2023-03-01T04:32:32;13.00;;;7.70;;
55312;SDS011;46892;45.668;11.756;2023-03-01T04:34:58;11.03;;;6.90;;
55312;SDS011;46892;45.668;11.756;2023-03-01T04:37:24;11.87;;;7.37;;
55312;SDS011;46892;45.668;11.756;2023-03-01T04:39:50;16.30;;;8.23;;
55312;SDS011;46892;45.668;11.756;2023-03-01T04:42:16;10.13;;;6.43;;
55312;SDS011;46892;45.668;11.756;2023-03-01T04:44:43;12.67;;;6.83;;
55312;SDS011;46892;45.668;11.756;2023-03-01T04:47:09;14.37;;;7.50;;
55312;SDS011;46892;45.668;11.756;2023-03-01T04:49:34;10.20;;;6.53;;
55312;SDS011;46892;45.668;11.756;2023-03-01T04:52:00;13.87;;;6.63;;
55312;SDS011;46892;45.668;11.756;2023-03-01T04:54:29;11.23;;;6.57;;
55312;SDS011;46892;45.668;11.756;2023-03-01T04:56:58;11.87;;;7.20;;
55312;SDS011;46892;45.668;11.756;2023-03-01T04:59:24;12.73;;;6.80;;
55312;SDS011;46892;45.668;11.756;2023-03-01T05:01:50;12.90;;;7.03;;
55312;SDS011;46892;45.668;11.756;2023-03-01T05:04:17;10.90;;;7.07;;
55312;SDS011;46892;45.668;11.756;2023-03-01T05:06:43;11.50;;;7.23;;
55312;SDS011;46892;45.668;11.756;2023-03-01T05:09:09;13.73;;;7.60;;
55312;SDS011;46892;45.668;11.756;2023-03-01T05:11:36;14.43;;;7.90;;
55312;SDS011;46892;45.668;11.756;2023-03-01T05:14:02;13.97;;;7.80;;
55312;SDS011;46892;45.668;11.756;2023-03-01T05:16:29;13.60;;;7.73;;
55312;SDS011;46892;45.668;11.756;2023-03-01T05:18:55;18.07;;;8.97;;
55312;SDS011;46892;45.668;11.756;2023-03-01T05:21:21;12.50;;;7.17;;
55312;SDS011;46892;45.668;11.756;2023-03-01T05:23:47;12.07;;;7.27;;
55312;SDS011;46892;45.668;11.756;2023-03-01T05:26:14;13.30;;;7.30;;
55312;SDS011;46892;45.668;11.756;2023-03-01T05:28:40;12.43;;;8.07;;
55312;SDS011;46892;45.668;11.756;2023-03-01T05:31:06;14.47;;;8.77;;
55312;SDS011;46892;45.668;11.756;2023-03-01T05:33:35;13.73;;;8.43;;
55312;SDS011;46892;45.668;11.756;2023-03-01T05:36:02;15.73;;;9.00;;
55312;SDS011;46892;45.668;11.756;2023-03-01T05:38:28;15.20;;;10.00;;
55312;SDS011;46892;45.668;11.756;2023-03-01T05:40:54;15.43;;;8.77;;
55312;SDS011;46892;45.668;11.756;2023-03-01T05:43:19;14.97;;;9.27;;
55312;SDS011;46892;45.668;11.756;2023-03-01T05:45:45;16.17;;;9.30;;
55312;SDS011;46892;45.668;11.756;2023-03-01T05:48:11;16.20;;;10.03;;
55312;SDS011;46892;45.668;11.756;2023-03-01T05:50:38;16.63;;;11.53;;
55312;SDS011;46892;45.668;11.756;2023-03-01T05:53:07;19.67;;;11.73;;
55312;SDS011;46892;45.668;11.756;2023-03-01T05:55:34;20.60;;;10.80;;
55312;SDS011;46892;45.668;11.756;2023-03-01T05:58:02;12.87;;;8.40;;
55312;SDS011;46892;45.668;11.756;2023-03-01T06:00:34;17.13;;;9.50;;
55312;SDS011;46892;45.668;11.756;2023-03-01T06:03:00;14.60;;;8.83;;
55312;SDS011;46892;45.668;11.756;2023-03-01T06:05:26;15.17;;;8.30;;
55312;SDS011;46892;45.668;11.756;2023-03-01T06:07:52;14.37;;;10.13;;
55312;SDS011;46892;45.668;11.756;2023-03-01T06:10:18;16.60;;;9.10;;
55312;SDS011;46892;45.668;11.756;2023-03-01T06:12:45;13.77;;;8.47;;
55312;SDS011;46892;45.668;11.756;2023-03-01T06:15:12;12.00;;;7.83;;
55312;SDS011;46892;45.668;11.756;2023-03-01T06:17:41;13.00;;;7.83;;
55312;SDS011;46892;45.668;11.756;2023-03-01T06:20:13;12.77;;;7.73;;
55312;SDS011;46892;45.668;11.756;2023-03-01T06:22:41;11.90;;;7.70;;
55312;SDS011;46892;45.668;11.756;2023-03-01T06:25:08;22.40;;;11.43;;
55312;SDS011;46892;45.668;11.756;2023-03-01T06:27:35;22.00;;;13.00;;
55312;SDS011;46892;45.668;11.756;2023-03-01T06:30:01;20.03;;;12.00;;
55312;SDS011;46892;45.668;11.756;2023-03-01T06:32:27;15.17;;;9.17;;
55312;SDS011;46892;45.668;11.756;2023-03-01T06:34:53;14.97;;;8.90;;
55312;SDS011;46892;45.668;11.756;2023-03-01T06:37:18;12.93;;;7.80;;
55312;SDS011;46892;45.668;11.756;2023-03-01T06:39:44;19.77;;;9.40;;
55312;SDS011;46892;45.668;11.756;2023-03-01T06:42:10;14.33;;;9.13;;
55312;SDS011;46892;45.668;11.756;2023-03-01T06:44:36;14.53;;;9.23;;
55312;SDS011;46892;45.668;11.756;2023-03-01T06:47:02;15.47;;;9.50;;
55312;SDS011;46892;45.668;11.756;2023-03-01T06:49:28;20.90;;;12.90;;
55312;SDS011;46892;45.668;11.756;2023-03-01T06:51:55;22.27;;;12.33;;
55312;SDS011;46892;45.668;11.756;2023-03-01T06:54:21;18.10;;;11.60;;
55312;SDS011;46892;45.668;11.756;2023-03-01T06:56:48;19.07;;;11.17;;
55312;SDS011;46892;45.668;11.756;2023-03-01T06:59:14;16.03;;;10.23;;
55312;SDS011;46892;45.668;11.756;2023-03-01T07:01:40;14.90;;;9.10;;
55312;SDS011;46892;45.668;11.756;2023-03-01T07:04:06;19.70;;;11.87;;
55312;SDS011;46892;45.668;11.756;2023-03-01T07:06:32;18.77;;;11.23;;
55312;SDS011;46892;45.668;11.756;2023-03-01T07:08:57;18.67;;;11.53;;
55312;SDS011;46892;45.668;11.756;2023-03-01T07:11:23;17.87;;;10.67;;
55312;SDS011;46892;45.668;11.756;2023-03-01T07:13:49;19.00;;;9.73;;
55312;SDS011;46892;45.668;11.756;2023-03-01T07:16:14;14.30;;;10.07;;
55312;SDS011;46892;45.668;11.756;2023-03-01T07:18:40;17.20;;;10.17;;
55312;SDS011;46892;45.668;11.756;2023-03-01T07:21:07;21.83;;;10.20;;
55312;SDS011;46892;45.668;11.756;2023-03-01T07:23:33;17.50;;;10.07;;
55312;SDS011;46892;45.668;11.756;2023-03-01T07:25:59;17.97;;;10.83;;
55312;SDS011;46892;45.668;11.756;2023-03-01T07:28:25;15.67;;;9.80;;
55312;SDS011;46892;45.668;11.756;2023-03-01T07:30:52;16.50;;;10.40;;
55312;SDS011;46892;45.668;11.756;2023-03-01T07:33:18;16.97;;;10.20;;
55312;SDS011;46892;45.668;11.756;2023-03-01T07:35:44;18.07;;;10.10;;
55312;SDS011;46892;45.668;11.756;2023-03-01T07:38:09;23.10;;;13.33;;
55312;SDS011;46892;45.668;11.756;2023-03-01T07:40:35;19.57;;;11.03;;
55312;SDS011;46892;45.668;11.756;2023-03-01T07:43:01;43.27;;;24.60;;
55312;SDS011;46892;45.668;11.756;2023-03-01T07:45:27;19.97;;;11.83;;
55312;SDS011;46892;45.668;11.756;2023-03-01T07:47:53;18.17;;;8.40;;
55312;SDS011;46892;45.668;11.756;2023-03-01T07:50:19;17.00;;;8.67;;
55312;SDS011;46892;45.668;11.756;2023-03-01T07:52:46;17.33;;;9.63;;
55312;SDS011;46892;45.668;11.756;2023-03-01T07:55:13;16.07;;;9.03;;
55312;SDS011;46892;45.668;11.756;2023-03-01T07:57:39;15.97;;;9.70;;
55312;SDS011;46892;45.668;11.756;2023-03-01T08:00:05;21.77;;;10.17;;
55312;SDS011;46892;45.668;11.756;2023-03-01T08:02:32;15.20;;;9.13;;
55312;SDS011;46892;45.668;11.756;2023-03-01T08:04:57;14.07;;;9.07;;
55312;SDS011;46892;45.668;11.756;2023-03-01T08:07:23;14.33;;;8.87;;
55312;SDS011;46892;45.668;11.756;2023-03-01T08:09:48;15.30;;;9.33;;
55312;SDS011;46892;45.668;11.756;2023-03-01T08:12:14;15.00;;;9.10;;
55312;SDS011;46892;45.668;11.756;2023-03-01T08:14:41;15.17;;;9.67;;
55312;SDS011;46892;45.668;11.756;2023-03-01T08:17:07;25.60;;;10.20;;
55312;SDS011;46892;45.668;11.756;2023-03-01T08:19:33;12.40;;;8.13;;
55312;SDS011;46892;45.668;11.756;2023-03-01T08:22:00;11.23;;;6.33;;
55312;SDS011;46892;45.668;11.756;2023-03-01T08:24:27;11.43;;;7.40;;
55312;SDS011;46892;45.668;11.756;2023-03-01T08:26:54;18.70;;;10.70;;
55312;SDS011;46892;45.668;11.756;2023-03-01T08:29:20;13.53;;;7.30;;
55312;SDS011;46892;45.668;11.756;2023-03-01T08:31:46;11.10;;;6.73;;
55312;SDS011;46892;45.668;11.756;2023-03-01T08:34:13;12.47;;;6.83;;
55312;SDS011;46892;45.668;11.756;2023-03-01T08:36:42;9.93;;;6.77;;
55312;SDS011;46892;45.668;11.756;2023-03-01T08:39:10;23.07;;;11.10;;
55312;SDS011;46892;45.668;11.756;2023-03-01T08:41:37;29.27;;;15.77;;
55312;SDS011;46892;45.668;11.756;2023-03-01T08:44:03;13.97;;;11.43;;
55312;SDS011;46892;45.668;11.756;2023-03-01T08:46:30;13.10;;;7.10;;
55312;SDS011;46892;45.668;11.756;2023-03-01T08:48:58;43.83;;;16.23;;
55312;SDS011;46892;45.668;11.756;2023-03-01T08:51:24;12.03;;;7.13;;
55312;SDS011;46892;45.668;11.756;2023-03-01T08:53:51;9.07;;;5.13;;
55312;SDS011;46892;45.668;11.756;2023-03-01T08:56:17;10.90;;;7.20;;
55312;SDS011;46892;45.668;11.756;2023-03-01T08:58:47;9.63;;;6.17;;
55312;SDS011;46892;45.668;11.756;2023-03-01T09:01:17;8.68;;;5.03;;
55312;SDS011;46892;45.668;11.756;2023-03-01T09:03:44;9.20;;;6.00;;
55312;SDS011;46892;45.668;11.756;2023-03-01T09:06:10;9.13;;;5.80;;
55312;SDS011;46892;45.668;11.756;2023-03-01T09:08:40;8.00;;;5.40;;
55312;SDS011;46892;45.668;11.756;2023-03-01T09:11:07;8.83;;;6.97;;
55312;SDS011;46892;45.668;11.756;2023-03-01T09:13:34;10.17;;;5.40;;
55312;SDS011;46892;45.668;11.756;2023-03-01T09:16:01;9.47;;;5.33;;
55312;SDS011;46892;45.668;11.756;2023-03-01T09:18:28;15.27;;;6.07;;
55312;SDS011;46892;45.668;11.756;2023-03-01T09:21:00;10.53;;;5.30;;
55312;SDS011;46892;45.668;11.756;2023-03-01T09:23:27;12.30;;;6.30;;
55312;SDS011;46892;45.668;11.756;2023-03-01T09:25:53;9.63;;;5.40;;
55312;SDS011;46892;45.668;11.756;2023-03-01T09:28:18;9.50;;;5.63;;
55312;SDS011;46892;45.668;11.756;2023-03-01T09:30:44;9.30;;;5.30;;
55312;SDS011;46892;45.668;11.756;2023-03-01T09:33:10;10.70;;;5.37;;
55312;SDS011;46892;45.668;11.756;2023-03-01T09:35:39;8.90;;;5.13;;
55312;SDS011;46892;45.668;11.756;2023-03-01T09:38:11;9.40;;;5.20;;
55312;SDS011;46892;45.668;11.756;2023-03-01T09:40:37;12.90;;;6.87;;
55312;SDS011;46892;45.668;11.756;2023-03-01T09:43:15;9.13;;;5.27;;
55312;SDS011;46892;45.668;11.756;2023-03-01T09:46:09;9.47;;;5.30;;
55312;SDS011;46892;45.668;11.756;2023-03-01T09:48:41;7.65;;;4.40;;
55312;SDS011;46892;45.668;11.756;2023-03-01T09:51:46;7.83;;;5.17;;
55312;SDS011;46892;45.668;11.756;2023-03-01T09:54:03;9.40;;;5.30;;
55312;SDS011;46892;45.668;11.756;2023-03-01T10:04:24;8.80;;;4.60;;
55312;SDS011;46892;45.668;11.756;2023-03-01T10:09:36;7.10;;;3.83;;
55312;SDS011;46892;45.668;11.756;2023-03-01T10:12:08;7.80;;;4.70;;
55312;SDS011;46892;45.668;11.756;2023-03-01T10:14:43;17.00;;;3.73;;
55312;SDS011;46892;45.668;11.756;2023-03-01T10:17:46;7.10;;;3.73;;
55312;SDS011;46892;45.668;11.756;2023-03-01T10:20:26;8.03;;;3.00;;
55312;SDS011;46892;45.668;11.756;2023-03-01T10:22:58;4.03;;;2.50;;
55312;SDS011;46892;45.668;11.756;2023-03-01T10:25:36;6.00;;;3.20;;
55312;SDS011;46892;45.668;11.756;2023-03-01T10:28:24;6.70;;;3.20;;
55312;SDS011;46892;45.668;11.756;2023-03-01T10:30:56;5.47;;;2.83;;
55312;SDS011;46892;45.668;11.756;2023-03-01T10:33:24;7.10;;;3.27;;
55312;SDS011;46892;45.668;11.756;2023-03-01T10:35:54;5.55;;;3.25;;
55312;SDS011;46892;45.668;11.756;2023-03-01T10:38:20;9.67;;;3.47;;
55312;SDS011;46892;45.668;11.756;2023-03-01T10:41:04;5.57;;;3.10;;
55312;SDS011;46892;45.668;11.756;2023-03-01T10:49:06;7.23;;;4.63;;
55312;SDS011;46892;45.668;11.756;2023-03-01T10:51:43;7.30;;;3.97;;
55312;SDS011;46892;45.668;11.756;2023-03-01T10:56:51;9.30;;;3.83;;
55312;SDS011;46892;45.668;11.756;2023-03-01T10:59:32;8.70;;;4.03;;
55312;SDS011;46892;45.668;11.756;2023-03-01T11:07:23;7.45;;;3.58;;
55312;SDS011;46892;45.668;11.756;2023-03-01T11:09:48;7.90;;;3.77;;
55312;SDS011;46892;45.668;11.756;2023-03-01T11:12:14;8.17;;;3.60;;
55312;SDS011;46892;45.668;11.756;2023-03-01T11:14:48;8.37;;;3.97;;
55312;SDS011;46892;45.668;11.756;2023-03-01T11:17:26;8.97;;;3.57;;
55312;SDS011;46892;45.668;11.756;2023-03-01T11:22:26;8.43;;;3.30;;
55312;SDS011;46892;45.668;11.756;2023-03-01T11:24:53;7.80;;;3.77;;
55312;SDS011;46892;45.668;11.756;2023-03-01T11:27:33;6.97;;;3.50;;
55312;SDS011;46892;45.668;11.756;2023-03-01T11:32:45;9.52;;;3.88;;
55312;SDS011;46892;45.668;11.756;2023-03-01T11:35:33;9.97;;;4.70;;
55312;SDS011;46892;45.668;11.756;2023-03-01T11:40:41;14.60;;;4.10;;
55312;SDS011;46892;45.668;11.756;2023-03-01T12:03:38;12.73;;;4.07;;
55312;SDS011;46892;45.668;11.756;2023-03-01T12:08:56;12.90;;;3.47;;
55312;SDS011;46892;45.668;11.756;2023-03-01T12:14:45;12.77;;;3.67;;
55312;SDS011;46892;45.668;11.756;2023-03-01T12:30:35;8.27;;;3.50;;
55312;SDS011;46892;45.668;11.756;2023-03-01T12:38:42;11.00;;;3.70;;
55312;SDS011;46892;45.668;11.756;2023-03-01T12:47:01;9.87;;;4.37;;
55312;SDS011;46892;45.668;11.756;2023-03-01T12:49:45;11.83;;;4.50;;
55312;SDS011;46892;45.668;11.756;2023-03-01T12:52:41;18.00;;;8.13;;
55312;SDS011;46892;45.668;11.756;2023-03-01T12:55:26;9.53;;;4.33;;
55312;SDS011;46892;45.668;11.756;2023-03-01T13:06:23;10.50;;;4.20;;
55312;SDS011;46892;45.668;11.756;2023-03-01T13:09:13;11.10;;;3.53;;
55312;SDS011;46892;45.668;11.756;2023-03-01T13:12:00;10.77;;;3.40;;
55312;SDS011;46892;45.668;11.756;2023-03-01T13:16:52;8.27;;;3.63;;
55312;SDS011;46892;45.668;11.756;2023-03-01T13:21:45;10.87;;;4.10;;
55312;SDS011;46892;45.668;11.756;2023-03-01T13:27:39;9.60;;;3.87;;
55312;SDS011;46892;45.668;11.756;2023-03-01T13:29:44;8.03;;;3.87;;
55312;SDS011;46892;45.668;11.756;2023-03-01T13:32:27;12.73;;;4.13;;
55312;SDS011;46892;45.668;11.756;2023-03-01T13:37:42;9.17;;;4.53;;
55312;SDS011;46892;45.668;11.756;2023-03-01T13:42:47;10.63;;;4.60;;
55312;SDS011;46892;45.668;11.756;2023-03-01T13:47:58;17.98;;;9.00;;
55312;SDS011;46892;45.668;11.756;2023-03-01T13:50:53;12.10;;;8.20;;
55312;SDS011;46892;45.668;11.756;2023-03-01T13:53:23;11.73;;;6.90;;
55312;SDS011;46892;45.668;11.756;2023-03-01T13:55:52;14.37;;;6.87;;
55312;SDS011;46892;45.668;11.756;2023-03-01T13:58:24;9.33;;;4.50;;
55312;SDS011;46892;45.668;11.756;2023-03-01T14:03:23;9.90;;;5.40;;
55312;SDS011;46892;45.668;11.756;2023-03-01T14:08:36;54.03;;;21.23;;
55312;SDS011;46892;45.668;11.756;2023-03-01T14:14:02;27.60;;;11.33;;
55312;SDS011;46892;45.668;11.756;2023-03-01T14:19:29;16.38;;;7.68;;
55312;SDS011;46892;45.668;11.756;2023-03-01T14:22:19;19.93;;;9.43;;
55312;SDS011;46892;45.668;11.756;2023-03-01T14:24:58;77.77;;;29.43;;
55312;SDS011;46892;45.668;11.756;2023-03-01T14:27:26;45.07;;;20.30;;
55312;SDS011;46892;45.668;11.756;2023-03-01T14:29:59;35.63;;;17.00;;
55312;SDS011;46892;45.668;11.756;2023-03-01T14:32:27;33.03;;;13.70;;
55312;SDS011;46892;45.668;11.756;2023-03-01T14:34:55;23.97;;;15.07;;
55312;SDS011;46892;45.668;11.756;2023-03-01T14:37:26;25.33;;;15.57;;
55312;SDS011;46892;45.668;11.756;2023-03-01T14:39:52;33.63;;;20.02;;
55312;SDS011;46892;45.668;11.756;2023-03-01T14:42:19;34.03;;;19.77;;
55312;SDS011;46892;45.668;11.756;2023-03-01T14:44:47;53.37;;;31.23;;
55312;SDS011;46892;45.668;11.756;2023-03-01T14:47:18;32.93;;;18.67;;
55312;SDS011;46892;45.668;11.756;2023-03-01T14:49:48;43.23;;;23.23;;
55312;SDS011;46892;45.668;11.756;2023-03-01T14:52:22;41.40;;;23.37;;
55312;SDS011;46892;45.668;11.756;2023-03-01T14:54:53;10.10;;;5.47;;
55312;SDS011;46892;45.668;11.756;2023-03-01T14:57:23;12.73;;;4.80;;
55312;SDS011;46892;45.668;11.756;2023-03-01T15:00:10;8.90;;;3.90;;
55312;SDS011;46892;45.668;11.756;2023-03-01T15:02:42;9.13;;;4.50;;
55312;SDS011;46892;45.668;11.756;2023-03-01T15:05:08;8.70;;;4.13;;
55312;SDS011;46892;45.668;11.756;2023-03-01T15:07:38;8.20;;;4.00;;
55312;SDS011;46892;45.668;11.756;2023-03-01T15:10:12;9.47;;;4.30;;
55312;SDS011;46892;45.668;11.756;2023-03-01T15:12:48;7.43;;;4.60;;
55312;SDS011;46892;45.668;11.756;2023-03-01T15:17:58;9.07;;;4.60;;
55312;SDS011;46892;45.668;11.756;2023-03-01T15:20:26;13.37;;;5.23;;
55312;SDS011;46892;45.668;11.756;2023-03-01T15:22:54;10.00;;;4.80;;
55312;SDS011;46892;45.668;11.756;2023-03-01T15:25:22;10.23;;;4.93;;
55312;SDS011;46892;45.668;11.756;2023-03-01T15:27:50;9.53;;;4.83;;
55312;SDS011;46892;45.668;11.756;2023-03-01T15:30:18;9.03;;;4.17;;
55312;SDS011;46892;45.668;11.756;2023-03-01T15:32:47;10.37;;;5.07;;
55312;SDS011;46892;45.668;11.756;2023-03-01T15:40:58;7.47;;;4.47;;
55312;SDS011;46892;45.668;11.756;2023-03-01T15:46:25;11.63;;;7.47;;
55312;SDS011;46892;45.668;11.756;2023-03-01T15:48:59;16.50;;;9.23;;
55312;SDS011;46892;45.668;11.756;2023-03-01T15:54:18;15.73;;;5.45;;
55312;SDS011;46892;45.668;11.756;2023-03-01T15:56:46;9.93;;;4.90;;
55312;SDS011;46892;45.668;11.756;2023-03-01T15:59:12;9.80;;;6.13;;
55312;SDS011;46892;45.668;11.756;2023-03-01T16:01:39;13.37;;;8.37;;
55312;SDS011;46892;45.668;11.756;2023-03-01T16:04:05;11.83;;;6.70;;
55312;SDS011;46892;45.668;11.756;2023-03-01T16:06:31;10.40;;;5.60;;
55312;SDS011;46892;45.668;11.756;2023-03-01T16:08:56;10.50;;;6.03;;
55312;SDS011;46892;45.668;11.756;2023-03-01T16:11:22;10.73;;;5.40;;
55312;SDS011;46892;45.668;11.756;2023-03-01T16:13:48;11.17;;;5.83;;
55312;SDS011;46892;45.668;11.756;2023-03-01T16:16:15;13.20;;;4.87;;
55312;SDS011;46892;45.668;11.756;2023-03-01T16:18:44;7.90;;;3.93;;
55312;SDS011;46892;45.668;11.756;2023-03-01T16:21:15;6.25;;;3.67;;
55312;SDS011;46892;45.668;11.756;2023-03-01T16:23:45;5.27;;;2.97;;
55312;SDS011;46892;45.668;11.756;2023-03-01T16:26:11;4.67;;;2.60;;
55312;SDS011;46892;45.668;11.756;2023-03-01T16:28:38;5.97;;;2.87;;
55312;SDS011;46892;45.668;11.756;2023-03-01T16:31:04;5.67;;;2.77;;
55312;SDS011;46892;45.668;11.756;2023-03-01T16:33:30;3.73;;;2.37;;
55312;SDS011;46892;45.668;11.756;2023-03-01T16:35:56;5.17;;;3.20;;
55312;SDS011;46892;45.668;11.756;2023-03-01T16:38:22;6.43;;;3.50;;
55312;SDS011;46892;45.668;11.756;2023-03-01T16:40:49;5.87;;;3.47;;
55312;SDS011;46892;45.668;11.756;2023-03-01T16:43:16;5.50;;;3.67;;
55312;SDS011;46892;45.668;11.756;2023-03-01T16:45:41;10.73;;;7.30;;
55312;SDS011;46892;45.668;11.756;2023-03-01T16:48:09;18.40;;;10.37;;
55312;SDS011;46892;45.668;11.756;2023-03-01T16:50:35;20.30;;;11.60;;
55312;SDS011;46892;45.668;11.756;2023-03-01T16:53:01;22.93;;;14.03;;
55312;SDS011;46892;45.668;11.756;2023-03-01T16:55:27;24.20;;;15.40;;
55312;SDS011;46892;45.668;11.756;2023-03-01T16:57:53;18.13;;;15.77;;
55312;SDS011;46892;45.668;11.756;2023-03-01T17:00:19;7.10;;;4.70;;
55312;SDS011;46892;45.668;11.756;2023-03-01T17:02:45;7.90;;;4.23;;